createdAt,value
2017-06-23T11:07:59.546Z,16.60
2017-06-23T11:10:27.152Z,16.50
2017-06-23T11:12:54.770Z,16.40
2017-06-23T11:15:22.529Z,16.30
2017-06-23T11:17:50.113Z,16.30
2017-06-23T11:20:17.696Z,16.20
2017-06-23T11:22:45.307Z,16.30
2017-06-23T11:25:13.930Z,16.30
2017-06-23T11:27:41.498Z,16.40
2017-06-23T11:30:09.682Z,16.40
2017-06-23T11:32:37.599Z,16.50
2017-06-23T11:35:05.236Z,16.50
2017-06-23T11:37:33.854Z,16.50
2017-06-23T11:40:01.789Z,16.70
2017-06-23T11:42:29.540Z,16.90
2017-06-23T11:44:58.612Z,16.90
2017-06-23T11:47:26.224Z,17.10
2017-06-23T11:49:53.799Z,17.10
2017-06-23T11:52:21.729Z,17.20
2017-06-23T11:54:49.354Z,17.30
2017-06-23T11:57:16.920Z,17.40
2017-06-23T11:59:45.512Z,17.70
2017-06-23T12:02:13.110Z,17.70
2017-06-23T12:04:43.400Z,18.00
2017-06-23T12:07:11.755Z,18.20
2017-06-23T12:09:39.621Z,18.30
2017-06-23T12:12:08.083Z,18.40
2017-06-23T12:14:37.164Z,18.60
2017-06-23T12:17:04.831Z,18.50
2017-06-23T12:19:32.577Z,18.80
2017-06-23T12:22:00.382Z,18.70
2017-06-23T12:24:28.070Z,18.60
2017-06-23T12:26:56.507Z,19.00
2017-06-23T12:29:24.704Z,19.10
2017-06-23T12:31:52.254Z,19.30
2017-06-23T12:34:19.829Z,19.60
2017-06-23T12:36:48.817Z,19.80
2017-06-23T12:39:16.400Z,19.60
2017-06-23T12:41:43.990Z,19.60
2017-06-23T12:44:11.949Z,19.70
2017-06-23T12:46:39.521Z,19.80
2017-06-23T12:49:07.161Z,19.70
2017-06-23T12:51:35.151Z,19.80
2017-06-23T12:54:02.816Z,20.00
2017-06-23T12:56:31.164Z,20.30
2017-06-23T12:59:00.600Z,20.40
2017-06-23T13:01:29.695Z,20.40
2017-06-23T13:03:57.286Z,20.60
2017-06-23T13:06:26.311Z,20.50
2017-06-23T13:08:53.984Z,20.30
2017-06-23T13:11:21.691Z,20.50
2017-06-23T13:13:49.551Z,20.50
2017-06-23T13:16:17.126Z,20.60
2017-06-23T13:18:44.683Z,20.40
2017-06-23T13:21:12.581Z,20.30
2017-06-23T13:23:40.245Z,20.30
2017-06-23T13:26:07.877Z,20.30
2017-06-23T13:28:35.943Z,20.70
2017-06-23T13:31:03.575Z,21.20
2017-06-23T13:33:31.276Z,21.50
2017-06-23T13:35:58.956Z,21.70
2017-06-23T13:38:27.329Z,21.60
2017-06-23T13:40:55.844Z,21.40
2017-06-23T13:43:23.830Z,21.00
2017-06-23T13:45:52.158Z,20.60
2017-06-23T13:48:19.764Z,20.60
2017-06-23T13:50:48.322Z,20.60
2017-06-23T13:53:15.884Z,20.80
2017-06-23T13:55:43.550Z,20.70
2017-06-23T13:58:11.345Z,20.60
2017-06-23T14:00:40.752Z,20.80
2017-06-23T14:03:09.355Z,20.70
2017-06-23T14:05:37.274Z,20.50
2017-06-23T14:08:05.109Z,20.30
2017-06-23T14:10:32.886Z,20.20
2017-06-23T14:13:00.644Z,20.10
2017-06-23T14:15:28.381Z,20.20
2017-06-23T14:17:55.986Z,20.30
2017-06-23T14:20:24.753Z,20.20
2017-06-23T14:22:52.327Z,20.20
2017-06-23T14:27:56.961Z,20.10
2017-06-23T14:30:24.601Z,20.10
2017-06-23T14:32:53.156Z,19.90
2017-06-23T14:35:20.987Z,19.70
2017-06-23T14:37:49.337Z,19.50
2017-06-23T14:40:16.916Z,19.50
2017-06-23T14:42:44.868Z,19.50
2017-06-23T14:45:12.591Z,19.60
2017-06-23T14:47:40.148Z,19.70
2017-06-23T14:50:09.158Z,20.10
2017-06-23T14:52:36.784Z,20.10
2017-06-23T14:55:05.001Z,20.40
2017-06-23T14:57:32.806Z,20.80
2017-06-23T15:00:00.470Z,21.10
2017-06-23T15:02:28.110Z,20.80
2017-06-23T15:04:56.227Z,20.40
2017-06-23T15:07:24.573Z,20.10
2017-06-23T15:09:52.165Z,20.10
2017-06-23T15:12:20.098Z,19.90
2017-06-23T15:14:48.510Z,19.60
2017-06-23T15:17:16.093Z,19.60
2017-06-23T15:19:44.136Z,19.40
2017-06-23T15:22:11.732Z,19.10
2017-06-23T15:24:39.387Z,19.00
2017-06-23T15:27:07.432Z,18.80
2017-06-23T15:29:35.143Z,18.60
2017-06-23T15:32:02.814Z,18.50
2017-06-23T15:34:30.886Z,18.50
2017-06-23T15:36:58.449Z,18.40
2017-06-23T15:39:27.050Z,18.40
2017-06-23T15:41:54.951Z,18.30
2017-06-23T15:44:22.557Z,18.30
2017-06-23T15:46:50.136Z,18.20
2017-06-23T15:49:18.149Z,18.10
2017-06-23T15:51:45.716Z,18.10
2017-06-23T15:54:15.012Z,18.00
2017-06-23T15:56:42.974Z,18.00
2017-06-23T15:59:10.571Z,17.90
2017-06-23T16:01:38.321Z,17.90
2017-06-23T16:04:06.871Z,17.90
2017-06-23T16:06:34.617Z,18.00
2017-06-23T16:09:02.371Z,18.10
2017-06-23T16:11:31.167Z,18.00
2017-06-23T16:13:58.821Z,18.00
2017-06-23T16:16:27.294Z,18.10
2017-06-23T16:18:54.910Z,18.00
2017-06-23T16:21:23.834Z,17.90
2017-06-23T16:23:51.435Z,17.90
2017-06-23T16:26:20.121Z,17.70
2017-06-23T16:28:47.762Z,17.70
2017-06-23T16:31:15.336Z,17.60
2017-06-23T16:33:43.161Z,17.70
2017-06-23T16:36:10.745Z,17.60
2017-06-23T16:38:38.312Z,17.70
2017-06-23T16:41:06.336Z,17.80
2017-06-23T16:43:34.061Z,17.80
2017-06-23T16:46:02.758Z,17.80
2017-06-23T16:48:31.031Z,17.80
2017-06-23T16:50:59.941Z,17.80
2017-06-23T16:53:34.098Z,17.80
2017-06-23T16:56:03.221Z,17.80
2017-06-23T16:58:31.146Z,17.70
2017-06-23T17:00:58.790Z,17.70
2017-06-23T17:03:26.704Z,17.60
2017-06-23T17:05:55.037Z,17.50
2017-06-23T17:08:22.611Z,17.50
2017-06-23T17:10:50.988Z,17.40
2017-06-23T17:13:19.305Z,17.40
2017-06-23T17:15:46.862Z,17.30
2017-06-23T17:18:15.482Z,17.40
2017-06-23T17:20:43.205Z,17.40
2017-06-23T17:23:10.787Z,17.40
2017-06-23T17:25:38.577Z,17.40
2017-06-23T17:28:06.165Z,17.40
2017-06-23T17:30:33.877Z,17.40
2017-06-23T17:33:01.715Z,17.40
2017-06-23T17:35:29.365Z,17.40
2017-06-23T17:37:57.738Z,17.30
2017-06-23T17:40:26.529Z,17.40
2017-06-23T17:42:54.862Z,17.30
2017-06-23T17:45:22.425Z,17.30
2017-06-23T17:47:51.112Z,17.40
2017-06-23T17:50:18.778Z,17.40
2017-06-23T17:52:46.464Z,17.40
2017-06-23T17:55:16.047Z,17.40
2017-06-23T17:57:43.645Z,17.40
2017-06-23T18:00:11.238Z,17.40
2017-06-23T18:02:39.330Z,17.50
2017-06-23T18:05:07.693Z,17.50
2017-06-23T18:07:36.150Z,17.50
2017-06-23T18:10:05.508Z,17.50
2017-06-23T18:12:33.773Z,17.50
2017-06-23T18:15:01.730Z,17.50
2017-06-23T18:17:30.799Z,17.40
2017-06-23T18:19:58.974Z,17.40
2017-06-23T18:22:26.628Z,17.40
2017-06-23T18:24:55.385Z,17.40
2017-06-23T18:27:22.960Z,17.30
2017-06-23T18:29:50.548Z,17.30
2017-06-23T18:32:18.874Z,17.30
2017-06-23T18:34:47.241Z,17.20
2017-06-23T18:37:15.580Z,17.20
2017-06-23T18:39:44.264Z,17.20
2017-06-23T18:42:12.603Z,17.20
2017-06-23T18:44:40.192Z,17.10
2017-06-23T18:47:08.337Z,17.10
2017-06-23T18:49:36.075Z,17.10
2017-06-23T18:52:04.820Z,17.10
2017-06-23T18:54:32.878Z,17.00
2017-06-23T18:57:00.632Z,17.00
2017-06-23T18:59:29.051Z,17.00
2017-06-23T19:01:57.293Z,17.00
2017-06-23T19:04:24.896Z,16.90
2017-06-23T19:06:52.537Z,16.90
2017-06-23T19:09:20.976Z,16.80
2017-06-23T19:11:49.469Z,16.80
2017-06-23T19:14:17.061Z,16.80
2017-06-23T19:16:45.785Z,16.80
2017-06-23T19:19:13.342Z,16.80
2017-06-23T19:21:41.241Z,16.80
2017-06-23T19:24:09.881Z,16.70
2017-06-23T19:26:38.433Z,16.70
2017-06-23T19:29:06.087Z,16.60
2017-06-23T19:31:34.113Z,16.60
2017-06-23T19:34:01.921Z,16.50
2017-06-23T19:36:30.638Z,16.50
2017-06-23T19:39:00.118Z,16.40
2017-06-23T19:41:27.760Z,16.40
2017-06-23T19:43:56.346Z,16.40
2017-06-23T19:46:24.346Z,16.40
2017-06-23T19:48:52.836Z,16.40
2017-06-23T19:51:20.409Z,16.40
2017-06-23T19:53:48.308Z,16.40
2017-06-23T19:56:15.866Z,16.30
2017-06-23T19:58:43.459Z,16.30
2017-06-23T20:01:11.438Z,16.30
2017-06-23T20:03:39.091Z,16.30
2017-06-23T20:06:07.506Z,16.30
2017-06-23T20:08:35.513Z,16.30
2017-06-23T20:11:03.199Z,16.30
2017-06-23T20:13:30.892Z,16.30
2017-06-23T20:15:59.550Z,16.30
2017-06-23T20:18:27.110Z,16.30
2017-06-23T20:20:54.669Z,16.40
2017-06-23T20:23:23.765Z,16.40
2017-06-23T20:25:51.357Z,16.40
2017-06-23T20:28:18.919Z,16.40
2017-06-23T20:30:46.687Z,16.40
2017-06-23T20:33:15.017Z,16.30
2017-06-23T20:35:42.572Z,16.30
2017-06-23T20:38:11.062Z,16.30
2017-06-23T20:40:39.471Z,16.30
2017-06-23T20:43:07.051Z,16.30
2017-06-23T20:45:36.641Z,16.30
2017-06-23T20:48:04.288Z,16.30
2017-06-23T20:50:32.869Z,16.40
2017-06-23T20:53:01.269Z,16.40
2017-06-23T20:55:28.967Z,16.40
2017-06-23T20:57:56.553Z,16.40
2017-06-23T21:00:24.507Z,16.30
2017-06-23T21:02:52.128Z,16.30
2017-06-23T21:05:20.451Z,16.30
2017-06-23T21:07:48.653Z,16.30
2017-06-23T21:10:16.222Z,16.30
2017-06-23T21:12:44.727Z,16.20
2017-06-23T21:15:12.685Z,16.20
2017-06-23T21:17:40.282Z,16.20
2017-06-23T21:20:08.128Z,16.10
2017-06-23T21:22:36.245Z,16.10
2017-06-23T21:25:05.465Z,16.10
2017-06-23T21:27:33.093Z,16.10
2017-06-23T21:30:02.402Z,16.20
2017-06-23T21:32:30.025Z,16.20
2017-06-23T21:34:57.615Z,16.20
2017-06-23T21:37:25.420Z,16.20
2017-06-23T21:39:53.760Z,16.10
2017-06-23T21:42:21.341Z,16.10
2017-06-23T21:44:49.182Z,16.20
2017-06-23T21:47:17.503Z,16.20
2017-06-23T21:49:45.076Z,16.10
2017-06-23T21:52:13.139Z,16.10
2017-06-23T21:54:40.700Z,16.10
2017-06-23T21:57:08.268Z,16.10
2017-06-23T21:59:36.528Z,16.10
2017-06-23T22:02:04.171Z,16.10
2017-06-23T22:04:31.921Z,16.00
2017-06-23T22:07:00.282Z,16.00
2017-06-23T22:09:27.880Z,16.00
2017-06-23T22:11:56.229Z,16.00
2017-06-23T22:14:24.336Z,16.00
2017-06-23T22:16:51.947Z,16.00
2017-06-23T22:19:19.516Z,16.00
2017-06-23T22:21:47.533Z,16.00
2017-06-23T22:24:15.194Z,16.10
2017-06-23T22:26:43.064Z,16.10
2017-06-23T22:29:11.741Z,16.10
2017-06-23T22:31:40.291Z,16.10
2017-06-23T22:34:09.049Z,16.10
2017-06-23T22:36:39.094Z,16.10
2017-06-23T22:39:06.730Z,16.10
2017-06-23T22:41:34.554Z,16.10
2017-06-23T22:44:02.778Z,16.10
2017-06-23T22:46:30.637Z,16.10
2017-06-23T22:48:58.220Z,16.10
2017-06-23T22:51:26.866Z,16.20
2017-06-23T22:53:54.421Z,16.20
2017-06-23T22:56:21.990Z,16.10
2017-06-23T22:58:56.902Z,16.20
2017-06-23T23:01:25.337Z,16.10
2017-06-23T23:03:52.922Z,16.10
2017-06-23T23:06:20.695Z,16.10
2017-06-23T23:08:48.282Z,16.20
2017-06-23T23:11:15.915Z,16.10
2017-06-23T23:13:43.805Z,16.10
2017-06-23T23:16:12.167Z,16.10
2017-06-23T23:18:40.509Z,16.10
2017-06-23T23:21:08.506Z,16.10
2017-06-23T23:23:36.100Z,16.10
2017-06-23T23:26:03.685Z,16.20
2017-06-23T23:28:32.367Z,16.20
2017-06-23T23:31:00.053Z,16.20
2017-06-23T23:33:27.673Z,16.20
2017-06-23T23:35:55.397Z,16.20
2017-06-23T23:38:23.000Z,16.30
2017-06-23T23:40:50.577Z,16.30
2017-06-23T23:43:20.168Z,16.30
2017-06-23T23:45:48.504Z,16.30
2017-06-23T23:48:16.092Z,16.30
2017-06-23T23:50:44.736Z,16.20
2017-06-23T23:53:13.068Z,16.20
2017-06-23T23:55:40.657Z,16.20
2017-06-23T23:58:09.412Z,16.20
